sensor_id;sensor_type;location;lat;lon;timestamp;temperature;humidity
3186;DHT22;1604;53.700;10.252;2023-03-21T00:02:17;7.40;99.90
3186;DHT22;1604;53.700;10.252;2023-03-21T00:05:19;7.40;99.90
3186;DHT22;1604;53.700;10.252;2023-03-21T00:08:22;7.40;99.90
3186;DHT22;1604;53.700;10.252;2023-03-21T00:11:24;7.40;99.90
3186;DHT22;1604;53.700;10.252;2023-03-21T00:14:28;7.40;99.90
3186;DHT22;1604;53.700;10.252;2023-03-21T00:17:30;7.40;99.90
3186;DHT22;1604;53.700;10.252;2023-03-21T00:20:33;7.40;99.90
3186;DHT22;1604;53.700;10.252;2023-03-21T00:23:37;7.40;99.90
3186;DHT22;1604;53.700;10.252;2023-03-21T00:26:39;7.40;99.90
3186;DHT22;1604;53.700;10.252;2023-03-21T00:29:42;7.40;99.90
3186;DHT22;1604;53.700;10.252;2023-03-21T00:32:45;7.40;99.90
3186;DHT22;1604;53.700;10.252;2023-03-21T00:35:50;7.40;99.90
3186;DHT22;1604;53.700;10.252;2023-03-21T00:38:56;7.40;99.90
3186;DHT22;1604;53.700;10.252;2023-03-21T00:41:58;7.40;99.90
3186;DHT22;1604;53.700;10.252;2023-03-21T00:45:01;7.40;99.90
3186;DHT22;1604;53.700;10.252;2023-03-21T00:48:03;7.40;99.90
3186;DHT22;1604;53.700;10.252;2023-03-21T00:51:11;7.40;99.90
3186;DHT22;1604;53.700;10.252;2023-03-21T00:54:15;7.40;99.90
3186;DHT22;1604;53.700;10.252;2023-03-21T00:57:16;7.40;99.90
3186;DHT22;1604;53.700;10.252;2023-03-21T01:00:21;7.40;99.90
3186;DHT22;1604;53.700;10.252;2023-03-21T01:03:23;7.40;99.90
3186;DHT22;1604;53.700;10.252;2023-03-21T01:06:26;7.40;99.90
3186;DHT22;1604;53.700;10.252;2023-03-21T01:09:28;7.40;99.90
3186;DHT22;1604;53.700;10.252;2023-03-21T01:12:30;7.40;99.90
3186;DHT22;1604;53.700;10.252;2023-03-21T01:15:34;7.40;99.90
3186;DHT22;1604;53.700;10.252;2023-03-21T01:18:37;7.40;99.90
3186;DHT22;1604;53.700;10.252;2023-03-21T01:21:39;7.40;99.90
3186;DHT22;1604;53.700;10.252;2023-03-21T01:24:41;7.40;99.90
3186;DHT22;1604;53.700;10.252;2023-03-21T01:27:43;7.40;99.90
3186;DHT22;1604;53.700;10.252;2023-03-21T01:30:48;7.40;99.90
3186;DHT22;1604;53.700;10.252;2023-03-21T01:33:50;7.40;99.90
3186;DHT22;1604;53.700;10.252;2023-03-21T01:36:53;7.40;99.90
3186;DHT22;1604;53.700;10.252;2023-03-21T01:39:55;7.40;99.90
3186;DHT22;1604;53.700;10.252;2023-03-21T01:42:57;7.40;99.90
3186;DHT22;1604;53.700;10.252;2023-03-21T01:49:30;7.40;99.90
3186;DHT22;1604;53.700;10.252;2023-03-21T01:52:37;7.40;99.90
3186;DHT22;1604;53.700;10.252;2023-03-21T01:55:41;7.40;99.90
3186;DHT22;1604;53.700;10.252;2023-03-21T01:58:44;7.40;99.90
3186;DHT22;1604;53.700;10.252;2023-03-21T02:01:49;7.40;99.90
3186;DHT22;1604;53.700;10.252;2023-03-21T02:04:51;7.40;99.90
3186;DHT22;1604;53.700;10.252;2023-03-21T02:07:56;7.40;99.90
3186;DHT22;1604;53.700;10.252;2023-03-21T02:10:58;7.40;99.90
3186;DHT22;1604;53.700;10.252;2023-03-21T02:14:00;7.40;99.90
3186;DHT22;1604;53.700;10.252;2023-03-21T02:17:09;7.40;99.90
3186;DHT22;1604;53.700;10.252;2023-03-21T02:24:24;7.40;99.90
3186;DHT22;1604;53.700;10.252;2023-03-21T02:27:30;7.40;99.90
3186;DHT22;1604;53.700;10.252;2023-03-21T02:30:57;7.40;99.90
3186;DHT22;1604;53.700;10.252;2023-03-21T02:34:31;7.40;99.90
3186;DHT22;1604;53.700;10.252;2023-03-21T02:37:41;7.40;99.90
3186;DHT22;1604;53.700;10.252;2023-03-21T02:40:51;7.40;99.90
3186;DHT22;1604;53.700;10.252;2023-03-21T02:44:05;7.40;99.90
3186;DHT22;1604;53.700;10.252;2023-03-21T02:47:11;7.40;99.90
3186;DHT22;1604;53.700;10.252;2023-03-21T02:50:16;7.40;99.90
3186;DHT22;1604;53.700;10.252;2023-03-21T02:53:22;7.50;99.90
3186;DHT22;1604;53.700;10.252;2023-03-21T02:56:25;7.50;99.90
3186;DHT22;1604;53.700;10.252;2023-03-21T02:59:28;7.50;99.90
3186;DHT22;1604;53.700;10.252;2023-03-21T03:02:31;7.50;99.90
3186;DHT22;1604;53.700;10.252;2023-03-21T03:05:35;7.50;99.90
3186;DHT22;1604;53.700;10.252;2023-03-21T03:08:44;7.50;99.90
3186;DHT22;1604;53.700;10.252;2023-03-21T03:11:51;7.50;99.90
3186;DHT22;1604;53.700;10.252;2023-03-21T03:15:01;7.50;99.90
3186;DHT22;1604;53.700;10.252;2023-03-21T03:18:10;7.50;99.90
3186;DHT22;1604;53.700;10.252;2023-03-21T03:21:18;7.50;99.90
3186;DHT22;1604;53.700;10.252;2023-03-21T03:24:25;7.50;99.90
3186;DHT22;1604;53.700;10.252;2023-03-21T03:27:31;7.50;99.90
3186;DHT22;1604;53.700;10.252;2023-03-21T03:30:35;7.50;99.90
3186;DHT22;1604;53.700;10.252;2023-03-21T03:33:41;7.50;99.90
3186;DHT22;1604;53.700;10.252;2023-03-21T03:36:47;7.50;99.90
3186;DHT22;1604;53.700;10.252;2023-03-21T03:39:57;7.50;99.90
3186;DHT22;1604;53.700;10.252;2023-03-21T03:43:03;7.50;99.90
3186;DHT22;1604;53.700;10.252;2023-03-21T03:46:11;7.60;99.90
3186;DHT22;1604;53.700;10.252;2023-03-21T03:49:16;7.60;99.90
3186;DHT22;1604;53.700;10.252;2023-03-21T03:52:21;7.60;99.90
3186;DHT22;1604;53.700;10.252;2023-03-21T03:55:28;7.60;99.90
3186;DHT22;1604;53.700;10.252;2023-03-21T03:58:34;7.50;99.90
3186;DHT22;1604;53.700;10.252;2023-03-21T04:01:38;7.60;99.90
3186;DHT22;1604;53.700;10.252;2023-03-21T04:04:40;7.60;99.90
3186;DHT22;1604;53.700;10.252;2023-03-21T04:07:42;7.60;99.90
3186;DHT22;1604;53.700;10.252;2023-03-21T04:10:47;7.60;99.90
3186;DHT22;1604;53.700;10.252;2023-03-21T04:13:49;7.60;99.90
3186;DHT22;1604;53.700;10.252;2023-03-21T04:16:51;7.60;99.90
3186;DHT22;1604;53.700;10.252;2023-03-21T04:19:54;7.60;99.90
3186;DHT22;1604;53.700;10.252;2023-03-21T04:22:56;7.60;99.90
3186;DHT22;1604;53.700;10.252;2023-03-21T04:25:59;7.60;99.90
3186;DHT22;1604;53.700;10.252;2023-03-21T04:29:01;7.60;99.90
3186;DHT22;1604;53.700;10.252;2023-03-21T04:32:03;7.60;99.90
3186;DHT22;1604;53.700;10.252;2023-03-21T04:35:15;7.60;99.90
3186;DHT22;1604;53.700;10.252;2023-03-21T04:38:19;7.60;99.90
3186;DHT22;1604;53.700;10.252;2023-03-21T04:41:22;7.60;99.90
3186;DHT22;1604;53.700;10.252;2023-03-21T04:44:24;7.60;99.90
3186;DHT22;1604;53.700;10.252;2023-03-21T04:47:28;7.60;99.90
3186;DHT22;1604;53.700;10.252;2023-03-21T04:50:30;7.60;99.90
3186;DHT22;1604;53.700;10.252;2023-03-21T04:53:32;7.60;99.90
3186;DHT22;1604;53.700;10.252;2023-03-21T04:56:36;7.60;99.90
3186;DHT22;1604;53.700;10.252;2023-03-21T05:02:48;7.60;99.90
3186;DHT22;1604;53.700;10.252;2023-03-21T05:43:55;7.70;99.90
3186;DHT22;1604;53.700;10.252;2023-03-21T07:20:45;8.30;99.90
3186;DHT22;1604;53.700;10.252;2023-03-21T08:11:27;8.70;99.90
3186;DHT22;1604;53.700;10.252;2023-03-21T08:14:30;8.70;99.90
3186;DHT22;1604;53.700;10.252;2023-03-21T08:17:32;8.70;99.90
3186;DHT22;1604;53.700;10.252;2023-03-21T08:20:37;8.80;99.90
3186;DHT22;1604;53.700;10.252;2023-03-21T08:23:39;8.80;99.90
3186;DHT22;1604;53.700;10.252;2023-03-21T08:26:42;8.80;99.90
3186;DHT22;1604;53.700;10.252;2023-03-21T08:29:45;8.80;99.90
3186;DHT22;1604;53.700;10.252;2023-03-21T08:32:47;8.80;99.90
3186;DHT22;1604;53.700;10.252;2023-03-21T08:35:49;8.80;99.90
3186;DHT22;1604;53.700;10.252;2023-03-21T08:38:51;8.80;99.90
3186;DHT22;1604;53.700;10.252;2023-03-21T08:41:57;8.80;99.90
3186;DHT22;1604;53.700;10.252;2023-03-21T08:44:59;8.80;99.90
3186;DHT22;1604;53.700;10.252;2023-03-21T08:48:01;8.90;99.90
3186;DHT22;1604;53.700;10.252;2023-03-21T08:51:03;8.90;99.90
3186;DHT22;1604;53.700;10.252;2023-03-21T08:54:07;8.90;99.90
3186;DHT22;1604;53.700;10.252;2023-03-21T08:57:10;9.00;99.90
3186;DHT22;1604;53.700;10.252;2023-03-21T09:00:14;9.00;99.90
3186;DHT22;1604;53.700;10.252;2023-03-21T09:03:17;9.10;99.90
3186;DHT22;1604;53.700;10.252;2023-03-21T09:12:42;9.10;99.90
3186;DHT22;1604;53.700;10.252;2023-03-21T09:15:44;9.20;99.90
3186;DHT22;1604;53.700;10.252;2023-03-21T09:21:56;9.20;99.90
3186;DHT22;1604;53.700;10.252;2023-03-21T09:24:59;9.20;99.90
3186;DHT22;1604;53.700;10.252;2023-03-21T09:28:10;9.20;99.90
3186;DHT22;1604;53.700;10.252;2023-03-21T09:31:13;9.20;99.90
3186;DHT22;1604;53.700;10.252;2023-03-21T09:37:26;9.20;99.90
3186;DHT22;1604;53.700;10.252;2023-03-21T09:40:45;9.30;99.90
3186;DHT22;1604;53.700;10.252;2023-03-21T09:47:05;9.30;99.90
3186;DHT22;1604;53.700;10.252;2023-03-21T09:56:35;9.40;99.90
3186;DHT22;1604;53.700;10.252;2023-03-21T10:12:21;9.30;99.90
3186;DHT22;1604;53.700;10.252;2023-03-21T10:18:35;9.40;99.90
3186;DHT22;1604;53.700;10.252;2023-03-21T10:21:39;9.40;99.90
3186;DHT22;1604;53.700;10.252;2023-03-21T10:24:43;9.40;99.90
3186;DHT22;1604;53.700;10.252;2023-03-21T10:27:47;9.50;99.90
3186;DHT22;1604;53.700;10.252;2023-03-21T10:30:52;9.50;99.90
3186;DHT22;1604;53.700;10.252;2023-03-21T10:33:58;9.60;99.90
3186;DHT22;1604;53.700;10.252;2023-03-21T10:37:02;9.60;99.90
3186;DHT22;1604;53.700;10.252;2023-03-21T10:40:09;9.70;99.90
3186;DHT22;1604;53.700;10.252;2023-03-21T10:43:25;9.70;99.90
3186;DHT22;1604;53.700;10.252;2023-03-21T10:46:30;9.80;99.90
3186;DHT22;1604;53.700;10.252;2023-03-21T10:49:33;9.80;99.90
3186;DHT22;1604;53.700;10.252;2023-03-21T10:52:40;9.90;99.90
3186;DHT22;1604;53.700;10.252;2023-03-21T10:55:45;9.90;99.90
3186;DHT22;1604;53.700;10.252;2023-03-21T10:58:50;9.90;99.90
3186;DHT22;1604;53.700;10.252;2023-03-21T11:01:54;10.00;99.90
3186;DHT22;1604;53.700;10.252;2023-03-21T11:05:03;10.00;99.90
3186;DHT22;1604;53.700;10.252;2023-03-21T11:08:10;10.00;99.90
3186;DHT22;1604;53.700;10.252;2023-03-21T11:11:19;10.00;99.90
3186;DHT22;1604;53.700;10.252;2023-03-21T11:14:34;10.00;99.90
3186;DHT22;1604;53.700;10.252;2023-03-21T11:17:40;10.10;99.90
3186;DHT22;1604;53.700;10.252;2023-03-21T11:20:49;10.10;99.90
3186;DHT22;1604;53.700;10.252;2023-03-21T11:23:54;10.10;99.90
3186;DHT22;1604;53.700;10.252;2023-03-21T11:26:56;10.10;99.90
3186;DHT22;1604;53.700;10.252;2023-03-21T11:30:02;10.10;99.90
3186;DHT22;1604;53.700;10.252;2023-03-21T11:33:05;10.10;99.90
3186;DHT22;1604;53.700;10.252;2023-03-21T11:36:30;10.10;99.90
3186;DHT22;1604;53.700;10.252;2023-03-21T11:39:36;10.10;99.90
3186;DHT22;1604;53.700;10.252;2023-03-21T11:42:42;10.10;99.90
3186;DHT22;1604;53.700;10.252;2023-03-21T11:45:57;10.10;99.90
3186;DHT22;1604;53.700;10.252;2023-03-21T11:48:59;10.10;99.90
3186;DHT22;1604;53.700;10.252;2023-03-21T11:52:09;10.10;99.90
3186;DHT22;1604;53.700;10.252;2023-03-21T11:55:27;10.10;99.90
3186;DHT22;1604;53.700;10.252;2023-03-21T11:58:36;10.10;99.90
3186;DHT22;1604;53.700;10.252;2023-03-21T12:01:54;10.10;99.90
3186;DHT22;1604;53.700;10.252;2023-03-21T12:05:02;10.20;99.90
3186;DHT22;1604;53.700;10.252;2023-03-21T12:08:12;10.20;99.90
3186;DHT22;1604;53.700;10.252;2023-03-21T12:11:23;10.20;99.90
3186;DHT22;1604;53.700;10.252;2023-03-21T12:14:33;10.20;99.90
3186;DHT22;1604;53.700;10.252;2023-03-21T12:17:48;10.20;99.90
3186;DHT22;1604;53.700;10.252;2023-03-21T12:20:53;10.30;99.90
3186;DHT22;1604;53.700;10.252;2023-03-21T12:24:04;10.40;99.90
3186;DHT22;1604;53.700;10.252;2023-03-21T12:27:15;10.40;99.90
3186;DHT22;1604;53.700;10.252;2023-03-21T12:30:26;10.40;99.90
3186;DHT22;1604;53.700;10.252;2023-03-21T12:33:49;10.40;99.90
3186;DHT22;1604;53.700;10.252;2023-03-21T12:37:05;10.40;99.90
3186;DHT22;1604;53.700;10.252;2023-03-21T12:40:19;10.40;99.90
3186;DHT22;1604;53.700;10.252;2023-03-21T12:43:36;10.40;99.90
3186;DHT22;1604;53.700;10.252;2023-03-21T12:46:44;10.30;99.90
3186;DHT22;1604;53.700;10.252;2023-03-21T12:49:52;10.40;99.90
3186;DHT22;1604;53.700;10.252;2023-03-21T12:52:58;10.40;99.90
3186;DHT22;1604;53.700;10.252;2023-03-21T12:56:07;10.40;99.90
3186;DHT22;1604;53.700;10.252;2023-03-21T12:59:17;10.50;99.90
3186;DHT22;1604;53.700;10.252;2023-03-21T13:02:25;10.50;99.90
3186;DHT22;1604;53.700;10.252;2023-03-21T13:05:33;10.50;99.90
3186;DHT22;1604;53.700;10.252;2023-03-21T13:08:39;10.40;99.90
3186;DHT22;1604;53.700;10.252;2023-03-21T13:11:43;10.40;99.90
3186;DHT22;1604;53.700;10.252;2023-03-21T13:14:55;10.40;99.90
3186;DHT22;1604;53.700;10.252;2023-03-21T13:18:08;10.40;99.90
3186;DHT22;1604;53.700;10.252;2023-03-21T13:21:18;10.40;99.90
3186;DHT22;1604;53.700;10.252;2023-03-21T13:24:31;10.40;99.90
3186;DHT22;1604;53.700;10.252;2023-03-21T13:27:34;10.30;99.90
3186;DHT22;1604;53.700;10.252;2023-03-21T13:30:38;10.30;99.90
3186;DHT22;1604;53.700;10.252;2023-03-21T13:33:41;10.30;99.90
3186;DHT22;1604;53.700;10.252;2023-03-21T13:36:48;10.30;99.90
3186;DHT22;1604;53.700;10.252;2023-03-21T13:39:51;10.30;99.90
3186;DHT22;1604;53.700;10.252;2023-03-21T13:42:54;10.20;99.90
3186;DHT22;1604;53.700;10.252;2023-03-21T13:46:05;10.30;99.90
3186;DHT22;1604;53.700;10.252;2023-03-21T13:49:14;10.30;99.90
3186;DHT22;1604;53.700;10.252;2023-03-21T13:52:27;10.30;99.90
3186;DHT22;1604;53.700;10.252;2023-03-21T13:55:33;10.40;99.90
3186;DHT22;1604;53.700;10.252;2023-03-21T13:58:38;10.40;99.90
3186;DHT22;1604;53.700;10.252;2023-03-21T14:01:57;10.40;99.90
3186;DHT22;1604;53.700;10.252;2023-03-21T14:05:02;10.40;99.90
3186;DHT22;1604;53.700;10.252;2023-03-21T14:08:07;10.50;99.90
3186;DHT22;1604;53.700;10.252;2023-03-21T14:11:12;10.40;99.90
3186;DHT22;1604;53.700;10.252;2023-03-21T14:14:19;10.40;99.90
3186;DHT22;1604;53.700;10.252;2023-03-21T14:17:23;10.40;99.90
3186;DHT22;1604;53.700;10.252;2023-03-21T14:20:27;10.40;99.90
3186;DHT22;1604;53.700;10.252;2023-03-21T14:23:31;10.40;99.90
3186;DHT22;1604;53.700;10.252;2023-03-21T14:26:35;10.40;99.90
3186;DHT22;1604;53.700;10.252;2023-03-21T14:29:38;10.40;99.90
3186;DHT22;1604;53.700;10.252;2023-03-21T14:32:41;10.40;99.90
3186;DHT22;1604;53.700;10.252;2023-03-21T14:35:45;10.40;99.90
3186;DHT22;1604;53.700;10.252;2023-03-21T14:39:01;10.40;99.90
3186;DHT22;1604;53.700;10.252;2023-03-21T14:42:05;10.40;99.90
3186;DHT22;1604;53.700;10.252;2023-03-21T14:45:15;10.40;99.90
3186;DHT22;1604;53.700;10.252;2023-03-21T14:48:18;10.40;99.90
3186;DHT22;1604;53.700;10.252;2023-03-21T14:51:21;10.30;99.90
3186;DHT22;1604;53.700;10.252;2023-03-21T14:54:26;10.30;99.90
3186;DHT22;1604;53.700;10.252;2023-03-21T14:57:31;10.30;99.90
3186;DHT22;1604;53.700;10.252;2023-03-21T15:00:33;10.30;99.90
3186;DHT22;1604;53.700;10.252;2023-03-21T15:03:35;10.30;99.90
3186;DHT22;1604;53.700;10.252;2023-03-21T15:06:48;10.30;99.90
3186;DHT22;1604;53.700;10.252;2023-03-21T15:09:55;10.30;99.90
3186;DHT22;1604;53.700;10.252;2023-03-21T15:12:59;10.30;99.90
3186;DHT22;1604;53.700;10.252;2023-03-21T15:16:02;10.30;99.90
3186;DHT22;1604;53.700;10.252;2023-03-21T15:19:05;10.30;99.90
3186;DHT22;1604;53.700;10.252;2023-03-21T15:22:15;10.30;99.90
3186;DHT22;1604;53.700;10.252;2023-03-21T15:25:25;10.20;99.90
3186;DHT22;1604;53.700;10.252;2023-03-21T15:28:28;10.20;99.90
3186;DHT22;1604;53.700;10.252;2023-03-21T15:31:34;10.20;99.90
3186;DHT22;1604;53.700;10.252;2023-03-21T15:34:37;10.20;99.90
3186;DHT22;1604;53.700;10.252;2023-03-21T15:37:39;10.20;99.90
3186;DHT22;1604;53.700;10.252;2023-03-21T15:40:42;10.20;99.90
3186;DHT22;1604;53.700;10.252;2023-03-21T15:43:45;10.20;99.90
3186;DHT22;1604;53.700;10.252;2023-03-21T15:46:48;10.20;99.90
3186;DHT22;1604;53.700;10.252;2023-03-21T15:49:53;10.20;99.90
3186;DHT22;1604;53.700;10.252;2023-03-21T15:52:58;10.20;99.90
3186;DHT22;1604;53.700;10.252;2023-03-21T15:56:04;10.20;99.90
3186;DHT22;1604;53.700;10.252;2023-03-21T15:59:11;10.20;99.90
3186;DHT22;1604;53.700;10.252;2023-03-21T16:02:16;10.20;99.90
3186;DHT22;1604;53.700;10.252;2023-03-21T16:05:23;10.20;99.90
3186;DHT22;1604;53.700;10.252;2023-03-21T16:08:26;10.20;99.90
3186;DHT22;1604;53.700;10.252;2023-03-21T16:11:37;10.10;99.90
3186;DHT22;1604;53.700;10.252;2023-03-21T16:14:40;10.10;99.90
3186;DHT22;1604;53.700;10.252;2023-03-21T16:17:47;10.10;99.90
3186;DHT22;1604;53.700;10.252;2023-03-21T16:20:51;10.10;99.90
3186;DHT22;1604;53.700;10.252;2023-03-21T16:23:57;10.00;99.90
3186;DHT22;1604;53.700;10.252;2023-03-21T16:27:00;10.00;99.90
3186;DHT22;1604;53.700;10.252;2023-03-21T16:30:03;10.00;99.90
3186;DHT22;1604;53.700;10.252;2023-03-21T16:33:05;10.00;99.90
3186;DHT22;1604;53.700;10.252;2023-03-21T16:36:11;10.00;99.90
3186;DHT22;1604;53.700;10.252;2023-03-21T16:39:17;9.90;99.90
3186;DHT22;1604;53.700;10.252;2023-03-21T16:42:21;9.90;99.90
3186;DHT22;1604;53.700;10.252;2023-03-21T16:45:23;9.90;99.90
3186;DHT22;1604;53.700;10.252;2023-03-21T16:48:27;9.90;99.90
3186;DHT22;1604;53.700;10.252;2023-03-21T16:51:31;9.80;99.90
3186;DHT22;1604;53.700;10.252;2023-03-21T16:54:33;9.80;99.90
3186;DHT22;1604;53.700;10.252;2023-03-21T16:57:36;9.70;99.90
3186;DHT22;1604;53.700;10.252;2023-03-21T17:00:38;9.70;99.90
3186;DHT22;1604;53.700;10.252;2023-03-21T17:03:41;9.70;99.90
3186;DHT22;1604;53.700;10.252;2023-03-21T17:06:44;9.60;99.90
3186;DHT22;1604;53.700;10.252;2023-03-21T17:09:47;9.60;99.90
3186;DHT22;1604;53.700;10.252;2023-03-21T17:12:50;9.60;99.90
3186;DHT22;1604;53.700;10.252;2023-03-21T17:15:53;9.60;99.90
3186;DHT22;1604;53.700;10.252;2023-03-21T17:18:54;9.50;99.90
3186;DHT22;1604;53.700;10.252;2023-03-21T17:21:56;9.50;99.90
3186;DHT22;1604;53.700;10.252;2023-03-21T17:24:58;9.50;99.90
3186;DHT22;1604;53.700;10.252;2023-03-21T17:28:04;9.50;99.90
3186;DHT22;1604;53.700;10.252;2023-03-21T17:31:11;9.40;99.90
3186;DHT22;1604;53.700;10.252;2023-03-21T17:34:13;9.40;99.90
3186;DHT22;1604;53.700;10.252;2023-03-21T17:37:15;9.40;99.90
3186;DHT22;1604;53.700;10.252;2023-03-21T17:40:20;9.30;99.90
3186;DHT22;1604;53.700;10.252;2023-03-21T17:43:24;9.30;99.90
3186;DHT22;1604;53.700;10.252;2023-03-21T17:46:26;9.30;99.90
3186;DHT22;1604;53.700;10.252;2023-03-21T17:49:29;9.20;99.90
3186;DHT22;1604;53.700;10.252;2023-03-21T17:52:31;9.20;99.90
3186;DHT22;1604;53.700;10.252;2023-03-21T17:55:34;9.20;99.90
3186;DHT22;1604;53.700;10.252;2023-03-21T17:58:38;9.20;99.90
3186;DHT22;1604;53.700;10.252;2023-03-21T18:01:40;9.20;99.90
3186;DHT22;1604;53.700;10.252;2023-03-21T18:04:42;9.20;99.90
3186;DHT22;1604;53.700;10.252;2023-03-21T18:07:45;9.20;99.90
3186;DHT22;1604;53.700;10.252;2023-03-21T18:10:47;9.20;99.90
3186;DHT22;1604;53.700;10.252;2023-03-21T18:13:50;9.20;99.90
3186;DHT22;1604;53.700;10.252;2023-03-21T18:16:52;9.20;99.90
3186;DHT22;1604;53.700;10.252;2023-03-21T18:19:55;9.20;99.90
3186;DHT22;1604;53.700;10.252;2023-03-21T18:22:57;9.20;99.90
3186;DHT22;1604;53.700;10.252;2023-03-21T18:25:59;9.20;99.90
3186;DHT22;1604;53.700;10.252;2023-03-21T18:29:03;9.20;99.90
3186;DHT22;1604;53.700;10.252;2023-03-21T18:32:05;9.20;99.90
3186;DHT22;1604;53.700;10.252;2023-03-21T18:35:10;9.20;99.90
3186;DHT22;1604;53.700;10.252;2023-03-21T18:38:12;9.30;99.90
3186;DHT22;1604;53.700;10.252;2023-03-21T18:41:15;9.20;99.90
3186;DHT22;1604;53.700;10.252;2023-03-21T18:44:19;9.20;99.90
3186;DHT22;1604;53.700;10.252;2023-03-21T18:47:21;9.20;99.90
3186;DHT22;1604;53.700;10.252;2023-03-21T18:50:23;9.20;99.90
3186;DHT22;1604;53.700;10.252;2023-03-21T18:53:25;9.20;99.90
3186;DHT22;1604;53.700;10.252;2023-03-21T18:56:28;9.20;99.90
3186;DHT22;1604;53.700;10.252;2023-03-21T18:59:32;9.10;99.90
3186;DHT22;1604;53.700;10.252;2023-03-21T19:02:35;9.10;99.90
3186;DHT22;1604;53.700;10.252;2023-03-21T19:05:38;9.10;99.90
3186;DHT22;1604;53.700;10.252;2023-03-21T19:08:40;9.20;99.90
3186;DHT22;1604;53.700;10.252;2023-03-21T19:11:42;9.20;99.90
3186;DHT22;1604;53.700;10.252;2023-03-21T19:14:45;9.20;99.90
3186;DHT22;1604;53.700;10.252;2023-03-21T19:17:48;9.10;99.90
3186;DHT22;1604;53.700;10.252;2023-03-21T19:20:52;9.10;99.90
3186;DHT22;1604;53.700;10.252;2023-03-21T19:23:54;9.10;99.90
3186;DHT22;1604;53.700;10.252;2023-03-21T19:26:57;9.10;99.90
3186;DHT22;1604;53.700;10.252;2023-03-21T19:30:00;9.10;99.90
3186;DHT22;1604;53.700;10.252;2023-03-21T19:33:04;9.20;99.90
3186;DHT22;1604;53.700;10.252;2023-03-21T19:36:07;9.20;99.90
3186;DHT22;1604;53.700;10.252;2023-03-21T19:39:09;9.20;99.90
3186;DHT22;1604;53.700;10.252;2023-03-21T19:42:11;9.20;99.90
3186;DHT22;1604;53.700;10.252;2023-03-21T19:45:15;9.20;99.90
3186;DHT22;1604;53.700;10.252;2023-03-21T19:48:17;9.10;99.90
3186;DHT22;1604;53.700;10.252;2023-03-21T19:51:20;9.10;99.90
3186;DHT22;1604;53.700;10.252;2023-03-21T19:54:23;9.10;99.90
3186;DHT22;1604;53.700;10.252;2023-03-21T19:57:25;9.20;99.90
3186;DHT22;1604;53.700;10.252;2023-03-21T20:00:29;9.10;99.90
3186;DHT22;1604;53.700;10.252;2023-03-21T20:03:31;9.20;99.90
3186;DHT22;1604;53.700;10.252;2023-03-21T20:06:33;9.20;99.90
3186;DHT22;1604;53.700;10.252;2023-03-21T20:09:35;9.20;99.90
3186;DHT22;1604;53.700;10.252;2023-03-21T20:12:37;9.10;99.90
3186;DHT22;1604;53.700;10.252;2023-03-21T20:15:41;9.20;99.90
3186;DHT22;1604;53.700;10.252;2023-03-21T20:18:43;9.20;99.90
3186;DHT22;1604;53.700;10.252;2023-03-21T20:21:45;9.20;99.90
3186;DHT22;1604;53.700;10.252;2023-03-21T20:24:47;9.30;99.90
3186;DHT22;1604;53.700;10.252;2023-03-21T20:27:49;9.30;99.90
3186;DHT22;1604;53.700;10.252;2023-03-21T20:30:55;9.30;99.90
3186;DHT22;1604;53.700;10.252;2023-03-21T20:33:58;9.30;99.90
3186;DHT22;1604;53.700;10.252;2023-03-21T20:37:01;9.30;99.90
3186;DHT22;1604;53.700;10.252;2023-03-21T20:40:06;9.30;99.90
3186;DHT22;1604;53.700;10.252;2023-03-21T20:43:11;9.30;99.90
3186;DHT22;1604;53.700;10.252;2023-03-21T20:46:15;9.30;99.90
3186;DHT22;1604;53.700;10.252;2023-03-21T20:49:17;9.20;99.90
3186;DHT22;1604;53.700;10.252;2023-03-21T20:52:22;9.30;99.90
3186;DHT22;1604;53.700;10.252;2023-03-21T20:55:25;9.30;99.90
3186;DHT22;1604;53.700;10.252;2023-03-21T20:58:27;9.30;99.90
3186;DHT22;1604;53.700;10.252;2023-03-21T21:01:31;9.30;99.90
3186;DHT22;1604;53.700;10.252;2023-03-21T21:04:33;9.30;99.90
3186;DHT22;1604;53.700;10.252;2023-03-21T21:07:35;9.30;99.90
3186;DHT22;1604;53.700;10.252;2023-03-21T21:10:37;9.30;99.90
3186;DHT22;1604;53.700;10.252;2023-03-21T21:13:40;9.30;99.90
3186;DHT22;1604;53.700;10.252;2023-03-21T21:16:43;9.30;99.90
3186;DHT22;1604;53.700;10.252;2023-03-21T21:19:45;9.30;99.90
3186;DHT22;1604;53.700;10.252;2023-03-21T21:22:49;9.30;99.90
3186;DHT22;1604;53.700;10.252;2023-03-21T21:25:51;9.30;99.90
3186;DHT22;1604;53.700;10.252;2023-03-21T21:28:53;9.30;99.90
3186;DHT22;1604;53.700;10.252;2023-03-21T21:31:59;9.40;99.90
3186;DHT22;1604;53.700;10.252;2023-03-21T21:35:02;9.40;99.90
3186;DHT22;1604;53.700;10.252;2023-03-21T21:38:04;9.40;99.90
3186;DHT22;1604;53.700;10.252;2023-03-21T21:41:07;9.40;99.90
3186;DHT22;1604;53.700;10.252;2023-03-21T21:44:09;9.40;99.90
3186;DHT22;1604;53.700;10.252;2023-03-21T21:47:13;9.40;99.90
3186;DHT22;1604;53.700;10.252;2023-03-21T21:50:15;9.40;99.90
3186;DHT22;1604;53.700;10.252;2023-03-21T21:53:17;9.40;99.90
3186;DHT22;1604;53.700;10.252;2023-03-21T21:56:19;9.30;99.90
3186;DHT22;1604;53.700;10.252;2023-03-21T21:59:22;9.30;99.90
3186;DHT22;1604;53.700;10.252;2023-03-21T22:02:26;9.30;99.90
3186;DHT22;1604;53.700;10.252;2023-03-21T22:05:28;9.30;99.90
3186;DHT22;1604;53.700;10.252;2023-03-21T22:08:30;9.30;99.90
3186;DHT22;1604;53.700;10.252;2023-03-21T22:11:32;9.30;99.90
3186;DHT22;1604;53.700;10.252;2023-03-21T22:14:35;9.30;99.90
3186;DHT22;1604;53.700;10.252;2023-03-21T22:17:39;9.20;99.90
3186;DHT22;1604;53.700;10.252;2023-03-21T22:20:41;9.20;99.90
3186;DHT22;1604;53.700;10.252;2023-03-21T22:23:43;9.20;99.90
3186;DHT22;1604;53.700;10.252;2023-03-21T22:26:45;9.20;99.90
3186;DHT22;1604;53.700;10.252;2023-03-21T22:29:47;9.20;99.90
3186;DHT22;1604;53.700;10.252;2023-03-21T22:32:54;9.20;99.90
3186;DHT22;1604;53.700;10.252;2023-03-21T22:35:56;9.20;99.90
3186;DHT22;1604;53.700;10.252;2023-03-21T22:38:58;9.20;99.90
3186;DHT22;1604;53.700;10.252;2023-03-21T22:42:00;9.20;99.90
3186;DHT22;1604;53.700;10.252;2023-03-21T22:45:06;9.20;99.90
3186;DHT22;1604;53.700;10.252;2023-03-21T22:48:09;9.20;99.90
3186;DHT22;1604;53.700;10.252;2023-03-21T22:51:11;9.30;99.90
3186;DHT22;1604;53.700;10.252;2023-03-21T22:54:13;9.20;99.90
3186;DHT22;1604;53.700;10.252;2023-03-21T22:57:16;9.30;99.90
3186;DHT22;1604;53.700;10.252;2023-03-21T23:00:19;9.20;99.90
3186;DHT22;1604;53.700;10.252;2023-03-21T23:03:23;9.20;99.90
3186;DHT22;1604;53.700;10.252;2023-03-21T23:06:25;9.20;99.90
3186;DHT22;1604;53.700;10.252;2023-03-21T23:09:27;9.20;99.90
3186;DHT22;1604;53.700;10.252;2023-03-21T23:12:29;9.20;99.90
3186;DHT22;1604;53.700;10.252;2023-03-21T23:15:31;9.10;99.90
3186;DHT22;1604;53.700;10.252;2023-03-21T23:18:34;9.10;99.90
3186;DHT22;1604;53.700;10.252;2023-03-21T23:21:38;9.10;99.90
3186;DHT22;1604;53.700;10.252;2023-03-21T23:24:40;9.00;99.90
3186;DHT22;1604;53.700;10.252;2023-03-21T23:27:42;9.00;99.90
3186;DHT22;1604;53.700;10.252;2023-03-21T23:30:44;8.90;99.90
3186;DHT22;1604;53.700;10.252;2023-03-21T23:33:49;8.90;99.90
3186;DHT22;1604;53.700;10.252;2023-03-21T23:36:51;8.90;99.90
3186;DHT22;1604;53.700;10.252;2023-03-21T23:39:53;8.80;99.90
3186;DHT22;1604;53.700;10.252;2023-03-21T23:42:55;8.70;99.90
3186;DHT22;1604;53.700;10.252;2023-03-21T23:45:59;8.70;99.90
3186;DHT22;1604;53.700;10.252;2023-03-21T23:49:02;8.60;99.90